createdAt,value
2023-04-29T00:00:53.200Z,0.77
2023-04-29T00:01:53.266Z,0.66
2023-04-29T00:02:53.410Z,0.76
2023-04-29T00:03:53.469Z,0.56
2023-04-29T00:04:53.837Z,0.36
2023-04-29T00:05:53.688Z,0.62
2023-04-29T00:06:53.495Z,0.48
2023-04-29T00:07:53.561Z,0.69
2023-04-29T00:08:53.613Z,0.60
2023-04-29T00:09:53.885Z,0.59
2023-04-29T00:10:53.736Z,0.83
2023-04-29T00:11:53.777Z,0.67
2023-04-29T00:12:53.828Z,0.60
2023-04-29T00:13:53.874Z,0.59
2023-04-29T00:14:53.932Z,0.58
2023-04-29T00:15:53.976Z,0.56
2023-04-29T00:16:54.094Z,0.58
2023-04-29T00:17:54.214Z,0.57
2023-04-29T00:18:54.127Z,0.56
2023-04-29T00:19:54.473Z,0.65
2023-04-29T00:20:54.254Z,0.54
2023-04-29T00:21:54.308Z,0.74
2023-04-29T00:22:54.388Z,0.69
2023-04-29T00:23:54.429Z,0.50
2023-04-29T00:24:54.490Z,0.49
2023-04-29T00:25:54.550Z,0.59
2023-04-29T00:26:54.626Z,0.65
2023-04-29T00:27:54.661Z,0.57
2023-04-29T00:28:54.728Z,0.56
2023-04-29T00:29:54.925Z,0.66
2023-04-29T00:30:54.881Z,0.67
2023-04-29T00:31:54.897Z,0.50
2023-04-29T00:32:54.993Z,0.60
2023-04-29T00:33:55.031Z,0.58
2023-04-29T00:34:55.121Z,0.62
2023-04-29T00:35:55.142Z,0.66
2023-04-29T00:36:55.214Z,0.55
2023-04-29T00:37:55.257Z,0.58
2023-04-29T00:38:55.352Z,0.30
2023-04-29T00:39:55.379Z,0.58
2023-04-29T00:40:55.449Z,0.59
2023-04-29T00:41:55.494Z,0.53
2023-04-29T00:42:55.565Z,0.45
2023-04-29T00:43:55.624Z,0.56
2023-04-29T00:44:55.687Z,0.74
2023-04-29T00:45:55.783Z,0.51
2023-04-29T00:46:55.821Z,0.65
2023-04-29T00:47:55.900Z,0.35
2023-04-29T00:48:56.050Z,0.48
2023-04-29T00:49:55.987Z,0.69
2023-04-29T00:50:56.033Z,0.50
2023-04-29T00:51:56.100Z,0.94
2023-04-29T00:52:56.143Z,0.95
2023-04-29T00:53:56.200Z,0.56
2023-04-29T00:54:56.252Z,0.40
2023-04-29T00:55:56.348Z,0.68
2023-04-29T00:56:56.374Z,0.43
2023-04-29T00:57:56.444Z,0.77
2023-04-29T00:58:56.497Z,0.55
2023-04-29T00:59:56.551Z,0.66
2023-04-29T01:00:56.593Z,0.63
2023-04-29T01:01:56.746Z,0.63
2023-04-29T01:02:56.781Z,0.55
2023-04-29T01:03:56.886Z,0.54
2023-04-29T01:04:57.078Z,0.45
2023-04-29T01:05:56.891Z,0.54
2023-04-29T01:06:56.949Z,0.57
2023-04-29T01:07:56.994Z,0.65
2023-04-29T01:08:57.058Z,0.57
2023-04-29T01:09:57.108Z,0.62
2023-04-29T01:10:57.157Z,0.57
2023-04-29T01:11:57.229Z,0.50
2023-04-29T01:12:57.262Z,0.56
2023-04-29T01:13:57.345Z,0.59
2023-04-29T01:14:57.402Z,0.69
2023-04-29T01:15:57.478Z,0.23
2023-04-29T01:16:57.519Z,0.57
2023-04-29T01:17:57.581Z,0.58
2023-04-29T01:18:57.635Z,0.54
2023-04-29T01:19:57.721Z,0.24
2023-04-29T01:20:57.745Z,0.39
2023-04-29T01:21:57.790Z,0.47
2023-04-29T01:22:57.857Z,0.64
2023-04-29T01:23:57.921Z,0.53
2023-04-29T01:24:57.978Z,0.47
2023-04-29T01:25:58.042Z,0.62
2023-04-29T01:26:58.090Z,0.37
2023-04-29T01:27:58.131Z,0.67
2023-04-29T01:28:58.189Z,0.70
2023-04-29T01:29:58.268Z,0.68
2023-04-29T01:30:58.333Z,0.55
2023-04-29T01:31:58.442Z,0.38
2023-04-29T01:32:58.582Z,0.41
2023-04-29T01:33:58.510Z,0.46
2023-04-29T01:34:58.548Z,0.38
2023-04-29T01:35:58.631Z,0.64
2023-04-29T01:36:58.654Z,0.46
2023-04-29T01:37:58.721Z,0.53
2023-04-29T01:38:58.763Z,0.43
2023-04-29T01:39:58.847Z,0.34
2023-04-29T01:40:58.904Z,0.62
2023-04-29T01:41:58.968Z,0.59
2023-04-29T01:42:59.014Z,0.43
2023-04-29T01:43:59.079Z,0.62
2023-04-29T01:44:59.131Z,0.53
2023-04-29T01:45:59.189Z,0.36
2023-04-29T01:46:59.360Z,0.55
2023-04-29T01:47:59.342Z,0.57
2023-04-29T01:48:59.364Z,0.42
2023-04-29T01:49:59.417Z,0.68
2023-04-29T01:50:59.508Z,0.42
2023-04-29T01:51:59.526Z,0.59
2023-04-29T01:52:59.598Z,0.66
2023-04-29T01:53:59.668Z,0.50
2023-04-29T01:54:59.708Z,0.69
2023-04-29T01:55:59.761Z,0.47
2023-04-29T01:56:59.839Z,0.35
2023-04-29T01:57:59.881Z,0.50
2023-04-29T01:58:59.951Z,0.53
2023-04-29T02:00:00.067Z,0.61
2023-04-29T02:01:00.106Z,0.61
2023-04-29T02:02:00.157Z,0.46
2023-04-29T02:03:00.289Z,0.60
2023-04-29T02:04:00.383Z,0.57
2023-04-29T02:05:00.397Z,0.60
2023-04-29T02:06:00.376Z,0.31
2023-04-29T02:07:00.444Z,0.50
2023-04-29T02:08:00.476Z,0.52
2023-04-29T02:09:00.553Z,0.41
2023-04-29T02:10:00.594Z,0.54
2023-04-29T02:11:00.675Z,0.44
2023-04-29T02:12:00.716Z,0.35
2023-04-29T02:13:00.774Z,0.74
2023-04-29T02:14:00.811Z,0.60
2023-04-29T02:15:00.894Z,0.50
2023-04-29T02:16:00.978Z,0.28
2023-04-29T02:17:01.091Z,0.58
2023-04-29T02:18:01.139Z,0.50
2023-04-29T02:19:01.132Z,0.28
2023-04-29T02:20:01.195Z,0.23
2023-04-29T02:21:01.268Z,0.70
2023-04-29T02:22:01.298Z,0.48
2023-04-29T02:23:01.343Z,0.73
2023-04-29T02:24:01.416Z,0.53
2023-04-29T02:25:01.431Z,0.33
2023-04-29T02:26:01.453Z,0.63
2023-04-29T02:27:01.449Z,0.38
2023-04-29T02:28:01.471Z,0.32
2023-04-29T02:29:01.559Z,0.28
2023-04-29T02:30:01.552Z,0.51
2023-04-29T02:31:01.547Z,0.46
2023-04-29T02:32:01.634Z,0.54
2023-04-29T02:33:01.677Z,0.41
2023-04-29T02:34:01.661Z,0.47
2023-04-29T02:35:01.606Z,0.33
2023-04-29T02:36:01.660Z,0.35
2023-04-29T02:37:01.782Z,0.38
2023-04-29T02:38:01.796Z,0.31
2023-04-29T02:39:01.811Z,0.33
2023-04-29T02:40:01.813Z,0.33
2023-04-29T02:41:01.833Z,0.20
2023-04-29T02:42:01.843Z,0.45
2023-04-29T02:43:01.850Z,0.29
2023-04-29T02:44:01.897Z,0.37
2023-04-29T02:45:01.871Z,0.29
2023-04-29T02:46:01.919Z,0.27
2023-04-29T02:47:01.962Z,0.46
2023-04-29T02:48:01.994Z,0.36
2023-04-29T02:49:01.985Z,0.32
2023-04-29T02:50:01.978Z,0.45
2023-04-29T02:51:02.015Z,0.49
2023-04-29T02:52:02.048Z,0.29
2023-04-29T02:53:02.042Z,0.35
2023-04-29T02:54:02.091Z,0.48
2023-04-29T02:55:02.103Z,0.43
2023-04-29T02:56:02.089Z,0.59
2023-04-29T02:57:02.137Z,0.42
2023-04-29T02:58:02.152Z,0.60
2023-04-29T02:59:02.140Z,0.36
2023-04-29T03:00:02.321Z,0.43
2023-04-29T03:01:02.211Z,0.62
2023-04-29T03:02:02.304Z,0.38
2023-04-29T03:03:02.564Z,0.25
2023-04-29T03:04:02.590Z,0.58
2023-04-29T03:05:02.423Z,0.38
2023-04-29T03:06:02.407Z,0.36
2023-04-29T03:07:02.438Z,0.46
2023-04-29T03:08:02.444Z,0.49
2023-04-29T03:09:02.474Z,0.45
2023-04-29T03:10:02.554Z,0.38
2023-04-29T03:11:02.536Z,0.53
2023-04-29T03:12:02.549Z,0.47
2023-04-29T03:13:02.565Z,0.44
2023-04-29T03:14:02.620Z,0.42
2023-04-29T03:15:02.645Z,0.42
2023-04-29T03:16:02.652Z,0.42
2023-04-29T03:17:02.761Z,0.47
2023-04-29T03:18:02.747Z,0.51
2023-04-29T03:19:02.696Z,0.28
2023-04-29T03:20:02.748Z,0.40
2023-04-29T03:21:02.726Z,0.57
2023-04-29T03:22:02.743Z,0.25
2023-04-29T03:23:02.771Z,0.43
2023-04-29T03:24:02.776Z,0.30
2023-04-29T03:25:02.877Z,0.19
2023-04-29T03:26:02.910Z,0.31
2023-04-29T03:27:02.901Z,0.41
2023-04-29T03:28:02.921Z,0.22
2023-04-29T03:29:02.932Z,0.27
2023-04-29T03:30:02.968Z,0.38
2023-04-29T03:31:03.011Z,0.51
2023-04-29T03:32:02.999Z,0.37
2023-04-29T03:33:03.101Z,0.26
2023-04-29T03:34:03.004Z,0.51
2023-04-29T03:35:03.031Z,0.37
2023-04-29T03:36:03.036Z,0.32
2023-04-29T03:37:03.039Z,0.44
2023-04-29T03:38:03.053Z,0.45
2023-04-29T03:39:03.056Z,0.41
2023-04-29T03:40:03.105Z,0.35
2023-04-29T03:41:03.129Z,0.40
2023-04-29T03:42:03.157Z,0.38
2023-04-29T03:43:03.226Z,0.12
2023-04-29T03:44:03.178Z,0.50
2023-04-29T03:45:03.204Z,0.40
2023-04-29T03:46:03.255Z,0.35
2023-04-29T03:47:03.214Z,0.58
2023-04-29T03:48:03.261Z,0.26
2023-04-29T03:49:03.246Z,0.49
2023-04-29T03:50:03.262Z,0.36
2023-04-29T03:51:03.269Z,0.28
2023-04-29T03:52:03.287Z,0.32
2023-04-29T03:53:03.304Z,0.46
2023-04-29T03:54:03.294Z,0.37
2023-04-29T03:55:03.307Z,0.24
2023-04-29T03:56:03.374Z,0.26
2023-04-29T03:57:03.398Z,0.41
2023-04-29T03:58:03.410Z,0.60
2023-04-29T03:59:03.412Z,0.35
2023-04-29T04:00:03.444Z,0.25
2023-04-29T04:01:03.537Z,0.29
2023-04-29T04:02:03.603Z,0.43
2023-04-29T04:03:05.572Z,0.33
2023-04-29T04:04:03.721Z,0.39
2023-04-29T04:05:03.656Z,0.36
2023-04-29T04:06:03.620Z,0.43
2023-04-29T04:07:03.732Z,0.32
2023-04-29T04:08:03.726Z,0.32
2023-04-29T04:09:03.733Z,0.42
2023-04-29T04:10:03.771Z,0.27
2023-04-29T04:11:03.776Z,0.33
2023-04-29T04:12:03.780Z,0.32
2023-04-29T04:13:03.832Z,0.41
2023-04-29T04:14:03.833Z,0.37
2023-04-29T04:15:03.844Z,0.34
2023-04-29T04:16:03.899Z,0.37
2023-04-29T04:17:03.892Z,0.30
2023-04-29T04:18:03.938Z,0.36
2023-04-29T04:19:03.928Z,0.22
2023-04-29T04:20:03.930Z,0.41
2023-04-29T04:21:03.924Z,0.47
2023-04-29T04:22:03.975Z,0.30
2023-04-29T04:23:03.975Z,0.27
2023-04-29T04:24:03.975Z,0.35
2023-04-29T04:25:03.997Z,0.29
2023-04-29T04:26:04.034Z,0.22
2023-04-29T04:27:04.126Z,0.33
2023-04-29T04:28:04.090Z,0.21
2023-04-29T04:29:04.078Z,0.58
2023-04-29T04:30:04.101Z,0.38
2023-04-29T04:31:04.172Z,0.35
2023-04-29T04:32:04.313Z,0.37
2023-04-29T04:33:04.270Z,0.25
2023-04-29T04:34:04.259Z,0.45
2023-04-29T04:35:04.298Z,0.40
2023-04-29T04:36:04.281Z,0.48
2023-04-29T04:37:04.283Z,0.55
2023-04-29T04:38:04.309Z,0.80
2023-04-29T04:39:04.306Z,0.36
2023-04-29T04:40:04.319Z,0.30
2023-04-29T04:41:04.345Z,0.56
2023-04-29T04:42:04.341Z,0.41
2023-04-29T04:43:04.348Z,0.30
2023-04-29T04:44:04.349Z,0.48
2023-04-29T04:45:04.375Z,0.44
2023-04-29T04:46:04.436Z,0.57
2023-04-29T04:47:04.404Z,0.49
2023-04-29T04:48:04.507Z,0.33
2023-04-29T04:49:04.438Z,0.31
2023-04-29T04:50:04.449Z,0.24
2023-04-29T04:51:04.439Z,0.56
2023-04-29T04:52:04.444Z,0.31
2023-04-29T04:53:04.464Z,0.44
2023-04-29T04:54:04.544Z,0.27
2023-04-29T04:55:04.562Z,0.27
2023-04-29T04:56:04.562Z,0.26
2023-04-29T04:57:04.569Z,0.25
2023-04-29T04:58:04.579Z,0.45
2023-04-29T04:59:04.595Z,0.38
2023-04-29T05:00:04.590Z,0.39
2023-04-29T05:01:04.638Z,0.40
2023-04-29T05:02:04.683Z,0.50
2023-04-29T05:03:04.785Z,0.28
2023-04-29T05:04:04.771Z,0.30
2023-04-29T05:05:04.702Z,0.06
2023-04-29T05:06:04.764Z,0.29
2023-04-29T05:07:04.771Z,0.37
2023-04-29T05:08:04.778Z,0.15
2023-04-29T05:09:04.799Z,0.18
2023-04-29T05:10:04.809Z,0.46
2023-04-29T05:11:04.884Z,0.19
2023-04-29T05:12:04.833Z,0.14
2023-04-29T05:13:04.854Z,0.44
2023-04-29T05:14:04.877Z,0.40
2023-04-29T05:15:04.980Z,0.26
2023-04-29T05:16:06.386Z,0.38
2023-04-29T05:17:05.239Z,0.25
2023-04-29T05:18:05.152Z,0.25
2023-04-29T05:19:05.123Z,0.33
2023-04-29T05:20:05.118Z,0.49
2023-04-29T05:21:05.153Z,0.33
2023-04-29T05:22:05.150Z,0.28
2023-04-29T05:23:05.155Z,0.39
2023-04-29T05:24:05.166Z,0.30
2023-04-29T05:25:05.160Z,0.22
2023-04-29T05:26:05.171Z,0.34
2023-04-29T05:27:05.193Z,0.30
2023-04-29T05:28:05.255Z,0.30
2023-04-29T05:29:05.297Z,0.50
2023-04-29T05:30:05.301Z,0.32
2023-04-29T05:31:05.346Z,0.44
2023-04-29T05:32:05.343Z,0.32
2023-04-29T05:33:05.369Z,0.28
2023-04-29T05:34:05.389Z,0.35
2023-04-29T05:35:07.306Z,0.31
2023-04-29T05:36:05.385Z,0.21
2023-04-29T05:37:05.415Z,0.36
2023-04-29T05:38:05.421Z,0.23
2023-04-29T05:39:05.515Z,0.46
2023-04-29T05:40:05.517Z,0.44
2023-04-29T05:41:05.522Z,0.46
2023-04-29T05:42:05.533Z,0.45
2023-04-29T05:43:05.561Z,0.45
2023-04-29T05:44:05.546Z,0.28
2023-04-29T05:45:05.564Z,0.38
2023-04-29T05:46:05.632Z,0.26
2023-04-29T05:47:05.626Z,0.50
2023-04-29T05:48:05.647Z,0.46
2023-04-29T05:49:05.637Z,0.46
2023-04-29T05:50:05.656Z,0.25
2023-04-29T05:51:05.653Z,0.33
2023-04-29T05:52:05.646Z,0.49
2023-04-29T05:53:05.638Z,0.44
2023-04-29T05:54:05.668Z,0.46
2023-04-29T05:55:05.731Z,0.49
2023-04-29T05:56:05.688Z,0.57
2023-04-29T05:57:05.672Z,0.46
2023-04-29T05:58:05.679Z,0.60
2023-04-29T05:59:05.680Z,0.41
2023-04-29T06:00:05.703Z,0.45
2023-04-29T06:01:05.670Z,0.60
2023-04-29T06:02:05.690Z,0.34
2023-04-29T06:03:05.787Z,0.21
2023-04-29T06:04:05.780Z,0.59
2023-04-29T06:05:06.012Z,0.42
2023-04-29T06:06:05.697Z,0.52
2023-04-29T06:07:05.704Z,0.56
2023-04-29T06:08:05.689Z,0.47
2023-04-29T06:09:08.833Z,0.31
2023-04-29T06:10:06.699Z,0.42
2023-04-29T06:11:05.694Z,0.42
2023-04-29T06:12:05.703Z,0.55
2023-04-29T06:13:05.652Z,0.73
2023-04-29T06:14:05.665Z,0.45
2023-04-29T06:15:05.642Z,0.35
2023-04-29T06:16:05.703Z,0.46
2023-04-29T06:17:05.639Z,0.36
2023-04-29T06:18:05.659Z,0.46
2023-04-29T06:19:05.607Z,0.37
2023-04-29T06:20:05.612Z,0.54
2023-04-29T06:21:05.631Z,0.62
2023-04-29T06:22:05.611Z,0.51
2023-04-29T06:23:05.587Z,0.41
2023-04-29T06:24:05.598Z,0.31
2023-04-29T06:25:05.624Z,0.85
2023-04-29T06:26:05.581Z,0.41
2023-04-29T06:27:05.564Z,0.40
2023-04-29T06:28:05.605Z,0.39
2023-04-29T06:29:05.633Z,0.35
2023-04-29T06:30:05.695Z,0.28
2023-04-29T06:31:05.801Z,0.30
2023-04-29T06:32:05.856Z,0.41
2023-04-29T06:33:05.961Z,0.47
2023-04-29T06:34:05.951Z,0.55
2023-04-29T06:35:06.008Z,0.36
2023-04-29T06:36:06.062Z,0.43
2023-04-29T06:37:06.115Z,0.39
2023-04-29T06:38:06.248Z,0.40
2023-04-29T06:39:06.257Z,0.36
2023-04-29T06:40:06.302Z,0.53
2023-04-29T06:41:06.344Z,0.54
2023-04-29T06:42:06.413Z,0.34
2023-04-29T06:43:06.458Z,0.34
2023-04-29T06:44:06.517Z,0.20
2023-04-29T06:45:06.582Z,0.43
2023-04-29T06:46:06.617Z,0.36
2023-04-29T06:47:06.787Z,0.46
2023-04-29T06:48:06.769Z,0.63
2023-04-29T06:49:06.745Z,0.31
2023-04-29T06:50:06.781Z,0.41
2023-04-29T06:51:06.828Z,0.41
2023-04-29T06:52:06.858Z,0.49
2023-04-29T06:53:06.884Z,0.35
2023-04-29T06:54:06.913Z,0.35
2023-04-29T06:55:06.950Z,0.42
2023-04-29T06:56:06.972Z,0.34
2023-04-29T06:57:06.996Z,0.66
2023-04-29T06:58:07.032Z,0.41
2023-04-29T06:59:07.049Z,0.30
2023-04-29T07:00:07.035Z,0.35
2023-04-29T07:01:07.148Z,0.46
2023-04-29T07:02:07.129Z,0.32
2023-04-29T07:03:07.186Z,0.49
2023-04-29T07:04:07.168Z,0.55
2023-04-29T07:05:07.157Z,0.54
2023-04-29T07:06:07.131Z,0.36
2023-04-29T07:07:07.170Z,0.50
2023-04-29T07:08:07.151Z,0.40
2023-04-29T07:09:07.157Z,0.22
2023-04-29T07:10:07.138Z,0.19
2023-04-29T07:11:07.169Z,0.59
2023-04-29T07:12:07.177Z,0.45
2023-04-29T07:13:07.178Z,0.47
2023-04-29T07:14:07.181Z,0.52
2023-04-29T07:15:07.209Z,0.36
2023-04-29T07:16:07.216Z,0.28
2023-04-29T07:17:07.292Z,0.34
2023-04-29T07:18:07.315Z,0.28
2023-04-29T07:19:07.293Z,0.48
2023-04-29T07:20:07.297Z,0.24
2023-04-29T07:21:07.322Z,0.36
2023-04-29T07:22:07.401Z,0.33
2023-04-29T07:23:07.387Z,0.32
2023-04-29T07:24:07.444Z,0.51
2023-04-29T07:25:07.488Z,0.33
2023-04-29T07:26:07.547Z,0.41
2023-04-29T07:27:07.588Z,0.24
2023-04-29T07:28:07.665Z,0.45
2023-04-29T07:29:07.702Z,0.23
2023-04-29T07:30:07.767Z,0.45
2023-04-29T07:31:07.905Z,0.62
2023-04-29T07:32:07.883Z,0.35
2023-04-29T07:33:07.963Z,0.36
2023-04-29T07:34:07.990Z,0.36
2023-04-29T07:35:08.053Z,0.23
2023-04-29T07:36:08.111Z,0.40
2023-04-29T07:37:08.177Z,0.41
2023-04-29T07:38:08.221Z,0.45
2023-04-29T07:39:08.273Z,0.38
2023-04-29T07:40:08.335Z,0.29
2023-04-29T07:41:08.385Z,0.34
2023-04-29T07:42:08.503Z,0.35
2023-04-29T07:43:08.467Z,0.26
2023-04-29T07:44:08.532Z,0.21
2023-04-29T07:45:08.551Z,0.37
2023-04-29T07:46:08.633Z,0.34
2023-04-29T07:47:08.626Z,0.39
2023-04-29T07:48:08.695Z,0.44
2023-04-29T07:49:08.721Z,0.24
2023-04-29T07:50:08.766Z,0.29
2023-04-29T07:51:08.832Z,0.28
2023-04-29T07:52:08.832Z,0.49
2023-04-29T07:53:08.871Z,0.20
2023-04-29T07:54:08.923Z,0.21
2023-04-29T07:55:08.950Z,0.37
2023-04-29T07:56:08.966Z,0.39
2023-04-29T07:57:09.002Z,0.34
2023-04-29T07:58:09.019Z,0.35
2023-04-29T07:59:09.046Z,0.59
2023-04-29T08:00:09.074Z,0.27
2023-04-29T08:01:09.098Z,0.27
2023-04-29T08:02:09.122Z,0.15
2023-04-29T08:03:09.254Z,0.19
2023-04-29T08:04:09.362Z,0.44
2023-04-29T08:05:09.418Z,0.18
2023-04-29T08:06:09.409Z,0.22
2023-04-29T08:07:09.236Z,0.31
2023-04-29T08:08:09.267Z,0.39
2023-04-29T08:09:09.266Z,0.24
2023-04-29T08:10:09.291Z,0.33
2023-04-29T08:11:09.312Z,0.46
2023-04-29T08:12:09.326Z,0.23
2023-04-29T08:13:09.336Z,0.35
2023-04-29T08:14:09.348Z,0.24
2023-04-29T08:15:10.031Z,0.24
2023-04-29T08:16:09.432Z,0.30
2023-04-29T08:17:09.398Z,0.10
2023-04-29T08:18:09.443Z,0.13
2023-04-29T08:19:09.449Z,0.23
2023-04-29T08:20:09.450Z,0.25
2023-04-29T08:21:09.462Z,0.34
2023-04-29T08:22:09.478Z,0.31
2023-04-29T08:23:09.482Z,0.24
2023-04-29T08:24:09.500Z,0.37
2023-04-29T08:25:09.520Z,0.11
2023-04-29T08:26:09.498Z,0.38
2023-04-29T08:27:09.521Z,0.29
2023-04-29T08:28:09.540Z,0.15
2023-04-29T08:29:09.579Z,0.65
2023-04-29T08:30:09.579Z,0.54
2023-04-29T08:31:09.666Z,0.15
2023-04-29T08:32:09.616Z,0.19
2023-04-29T08:33:09.618Z,0.24
2023-04-29T08:34:09.646Z,0.22
2023-04-29T08:35:09.637Z,0.23
2023-04-29T08:36:09.633Z,0.27
2023-04-29T08:37:09.672Z,0.24
2023-04-29T08:38:09.642Z,0.27
2023-04-29T08:39:09.652Z,0.15
2023-04-29T08:40:09.676Z,0.22
2023-04-29T08:41:09.663Z,0.36
2023-04-29T08:42:09.652Z,0.28
2023-04-29T08:43:09.680Z,0.21
2023-04-29T08:44:09.672Z,0.24
2023-04-29T08:45:09.665Z,0.11
2023-04-29T08:46:09.677Z,0.12
2023-04-29T08:47:09.657Z,0.54
2023-04-29T08:48:09.823Z,0.36
2023-04-29T08:49:09.669Z,0.24
2023-04-29T08:50:09.648Z,0.11
2023-04-29T08:51:09.721Z,0.32
2023-04-29T08:52:09.728Z,0.32
2023-04-29T08:53:09.715Z,0.22
2023-04-29T08:54:09.743Z,0.27
2023-04-29T08:55:09.786Z,0.10
2023-04-29T08:56:09.822Z,0.08
2023-04-29T08:57:09.893Z,0.25
2023-04-29T08:58:09.960Z,0.21
2023-04-29T08:59:09.962Z,0.19
2023-04-29T09:00:10.001Z,0.13
2023-04-29T09:01:10.100Z,0.12
2023-04-29T09:02:10.070Z,0.42
2023-04-29T09:03:10.197Z,0.25
2023-04-29T09:04:10.206Z,0.33
2023-04-29T09:05:10.192Z,0.13
2023-04-29T09:06:10.232Z,0.17
2023-04-29T09:07:10.229Z,0.21
2023-04-29T09:08:10.211Z,0.26
2023-04-29T09:09:10.212Z,0.24
2023-04-29T09:10:10.204Z,0.15
2023-04-29T09:11:10.220Z,0.16
2023-04-29T09:12:10.209Z,0.23
2023-04-29T09:13:10.203Z,0.17
2023-04-29T09:14:10.285Z,0.16
2023-04-29T09:15:10.283Z,0.28
2023-04-29T09:16:10.345Z,0.19
2023-04-29T09:17:10.287Z,0.15
2023-04-29T09:18:10.304Z,0.11
2023-04-29T09:19:10.325Z,0.17
2023-04-29T09:20:10.357Z,0.16
2023-04-29T09:21:10.423Z,0.11
2023-04-29T09:22:10.456Z,0.14
2023-04-29T09:23:10.509Z,0.14
2023-04-29T09:24:10.581Z,0.22
2023-04-29T09:25:10.622Z,0.19
2023-04-29T09:26:10.680Z,0.22
2023-04-29T09:27:10.707Z,0.08
2023-04-29T09:28:10.757Z,0.14
2023-04-29T09:29:10.758Z,0.20
2023-04-29T09:30:10.816Z,0.18
2023-04-29T09:31:10.914Z,0.26
2023-04-29T09:32:10.996Z,0.23
2023-04-29T09:33:11.130Z,0.18
2023-04-29T09:34:11.014Z,0.27
2023-04-29T09:35:11.081Z,0.13
2023-04-29T09:36:11.139Z,0.21
2023-04-29T09:37:11.225Z,0.32
2023-04-29T09:38:11.262Z,0.22
2023-04-29T09:39:11.379Z,0.17
2023-04-29T09:40:11.373Z,0.13
2023-04-29T09:41:11.430Z,0.13
2023-04-29T09:42:11.489Z,0.16
2023-04-29T09:43:11.595Z,0.19
2023-04-29T09:44:11.599Z,0.08
2023-04-29T09:45:11.653Z,0.19
2023-04-29T09:46:11.744Z,0.25
2023-04-29T09:47:11.780Z,0.22
2023-04-29T09:48:11.833Z,0.12
2023-04-29T09:49:11.887Z,0.27
2023-04-29T09:50:11.949Z,0.15
2023-04-29T09:51:12.530Z,0.15
2023-04-29T09:52:12.068Z,0.21
2023-04-29T09:53:12.124Z,0.06
2023-04-29T09:54:12.239Z,0.16
2023-04-29T09:55:12.213Z,0.22
2023-04-29T09:56:12.281Z,0.26
2023-04-29T09:57:12.331Z,0.22
2023-04-29T09:58:12.398Z,0.27
2023-04-29T09:59:12.438Z,0.18
2023-04-29T10:00:12.498Z,0.21
2023-04-29T10:01:12.575Z,0.09
2023-04-29T10:02:12.590Z,0.15
2023-04-29T10:03:12.699Z,0.20
2023-04-29T10:04:12.714Z,0.21
2023-04-29T10:05:12.829Z,0.40
2023-04-29T10:06:12.786Z,0.18
2023-04-29T10:07:12.819Z,0.26
2023-04-29T10:08:12.896Z,0.16
2023-04-29T10:09:12.943Z,0.11
2023-04-29T10:10:12.963Z,0.68
2023-04-29T10:11:13.008Z,0.29
2023-04-29T10:12:13.072Z,0.22
2023-04-29T10:13:13.125Z,0.18
2023-04-29T10:14:13.183Z,0.09
2023-04-29T10:15:13.196Z,0.12
2023-04-29T10:16:13.395Z,0.06
2023-04-29T10:17:13.263Z,0.21
2023-04-29T10:18:13.324Z,0.07
2023-04-29T10:19:13.328Z,0.13
2023-04-29T10:20:13.387Z,0.17
2023-04-29T10:21:13.414Z,0.20
2023-04-29T10:22:13.427Z,0.30
2023-04-29T10:23:13.484Z,0.09
2023-04-29T10:24:13.510Z,0.20
2023-04-29T10:25:13.551Z,0.13
2023-04-29T10:26:13.583Z,0.12
2023-04-29T10:27:13.640Z,0.18
2023-04-29T10:28:13.657Z,0.13
2023-04-29T10:29:13.678Z,0.25
2023-04-29T10:30:13.734Z,0.19
2023-04-29T10:31:13.786Z,0.29
2023-04-29T10:32:13.809Z,0.23
2023-04-29T10:33:13.844Z,0.37
2023-04-29T10:34:13.870Z,0.21
2023-04-29T10:35:13.921Z,0.28
2023-04-29T10:36:13.945Z,0.13
2023-04-29T10:37:13.997Z,0.27
2023-04-29T10:38:14.083Z,0.18
2023-04-29T10:39:14.077Z,0.32
2023-04-29T10:40:14.129Z,0.31
2023-04-29T10:41:14.164Z,0.11
2023-04-29T10:42:14.215Z,0.32
2023-04-29T10:43:14.256Z,0.17
2023-04-29T10:44:14.302Z,0.13
2023-04-29T10:45:14.346Z,0.13
2023-04-29T10:46:14.439Z,0.23
2023-04-29T10:47:14.436Z,0.07
2023-04-29T10:48:14.480Z,0.10
2023-04-29T10:49:14.499Z,0.12
2023-04-29T10:50:14.618Z,0.20
2023-04-29T10:51:14.604Z,0.11
2023-04-29T10:52:14.638Z,0.09
2023-04-29T10:53:14.692Z,0.17
2023-04-29T10:54:14.747Z,0.10
2023-04-29T10:55:14.806Z,0.17
2023-04-29T10:56:14.853Z,0.19
2023-04-29T10:57:14.890Z,0.29
2023-04-29T10:58:14.961Z,0.12
2023-04-29T10:59:15.018Z,0.23
2023-04-29T11:00:15.094Z,0.42
2023-04-29T11:01:15.218Z,0.26
2023-04-29T11:02:15.167Z,0.23
2023-04-29T11:03:15.312Z,0.17
2023-04-29T11:04:15.327Z,0.20
2023-04-29T11:05:15.333Z,0.19
2023-04-29T11:06:15.422Z,0.27
2023-04-29T11:07:15.463Z,0.19
2023-04-29T11:08:15.499Z,0.16
2023-04-29T11:09:15.564Z,0.19
2023-04-29T11:10:15.665Z,0.14
2023-04-29T11:11:15.738Z,0.22
2023-04-29T11:12:15.723Z,0.35
2023-04-29T11:13:15.803Z,0.14
2023-04-29T11:14:15.829Z,0.14
2023-04-29T11:15:15.899Z,0.22
2023-04-29T11:16:15.971Z,0.17
2023-04-29T11:17:16.011Z,0.32
2023-04-29T11:18:16.102Z,0.19
2023-04-29T11:19:16.148Z,0.15
2023-04-29T11:20:16.179Z,0.19
2023-04-29T11:21:16.246Z,0.11
2023-04-29T11:22:16.301Z,0.09
2023-04-29T11:23:16.359Z,0.21
2023-04-29T11:24:16.516Z,0.16
2023-04-29T11:25:16.455Z,0.06
2023-04-29T11:26:16.525Z,0.17
2023-04-29T11:27:16.568Z,0.10
2023-04-29T11:28:16.634Z,0.11
2023-04-29T11:29:16.710Z,0.16
2023-04-29T11:30:16.802Z,0.21
2023-04-29T11:31:16.868Z,0.44
2023-04-29T11:32:16.931Z,0.16
2023-04-29T11:33:16.966Z,0.19
2023-04-29T11:34:16.992Z,0.07
2023-04-29T11:35:17.052Z,0.07
2023-04-29T11:36:17.116Z,0.15
2023-04-29T11:37:17.172Z,0.26
2023-04-29T11:38:17.208Z,0.25
2023-04-29T11:39:17.263Z,0.20
2023-04-29T11:40:17.369Z,0.23
2023-04-29T11:41:17.384Z,0.17
2023-04-29T11:42:17.462Z,0.28
2023-04-29T11:43:17.519Z,0.25
2023-04-29T11:44:17.555Z,0.12
2023-04-29T11:45:17.620Z,0.12
2023-04-29T11:46:17.712Z,0.35
2023-04-29T11:47:17.835Z,0.16
2023-04-29T11:48:17.811Z,0.18
2023-04-29T11:49:17.865Z,0.18
2023-04-29T11:50:18.007Z,0.35
2023-04-29T11:51:17.996Z,0.16
2023-04-29T11:52:18.065Z,0.10
2023-04-29T11:53:18.119Z,0.26
2023-04-29T11:54:18.179Z,0.08
2023-04-29T11:55:18.244Z,0.23
2023-04-29T11:56:18.310Z,0.09
2023-04-29T11:57:18.355Z,0.12
2023-04-29T11:58:18.447Z,0.18
2023-04-29T11:59:18.451Z,0.18
2023-04-29T12:00:18.525Z,0.15
2023-04-29T12:01:18.542Z,0.09
2023-04-29T12:02:18.627Z,0.20
2023-04-29T12:03:18.863Z,0.12
2023-04-29T12:04:19.013Z,0.12
2023-04-29T12:05:19.002Z,0.15
2023-04-29T12:06:18.795Z,0.19
2023-04-29T12:07:18.853Z,0.11
2023-04-29T12:08:18.878Z,0.13
2023-04-29T12:09:18.912Z,0.11
2023-04-29T12:10:18.959Z,0.09
2023-04-29T12:11:18.977Z,0.35
2023-04-29T12:12:19.021Z,0.16
2023-04-29T12:13:19.063Z,0.24
2023-04-29T12:14:19.084Z,0.13
2023-04-29T12:15:19.096Z,0.11
2023-04-29T12:16:19.147Z,0.22
2023-04-29T12:17:19.123Z,0.17
2023-04-29T12:18:19.147Z,0.20
2023-04-29T12:19:19.135Z,0.33
2023-04-29T12:20:19.161Z,0.17
2023-04-29T12:21:19.174Z,0.11
2023-04-29T12:22:19.182Z,0.11
2023-04-29T12:23:19.180Z,0.09
2023-04-29T12:24:19.191Z,0.17
2023-04-29T12:25:19.210Z,0.14
2023-04-29T12:26:19.214Z,0.11
2023-04-29T12:27:19.191Z,0.23
2023-04-29T12:28:19.269Z,0.06
2023-04-29T12:29:19.258Z,0.11
2023-04-29T12:30:19.281Z,0.28
2023-04-29T12:31:19.303Z,0.19
2023-04-29T12:32:19.281Z,0.19
2023-04-29T12:33:19.288Z,0.06
2023-04-29T12:34:19.325Z,0.16
2023-04-29T12:35:19.310Z,0.17
2023-04-29T12:36:19.340Z,0.09
2023-04-29T12:37:19.348Z,0.17
2023-04-29T12:38:19.400Z,0.13
2023-04-29T12:39:19.420Z,0.16
2023-04-29T12:40:19.475Z,0.23
2023-04-29T12:41:19.456Z,0.12
2023-04-29T12:42:19.482Z,0.36
2023-04-29T12:43:19.473Z,0.32
2023-04-29T12:44:19.475Z,0.09
2023-04-29T12:45:19.476Z,0.25
2023-04-29T12:46:19.497Z,0.24
2023-04-29T12:47:19.493Z,0.12
2023-04-29T12:48:29.404Z,0.10
2023-04-29T12:49:20.482Z,0.05
2023-04-29T12:50:19.463Z,0.41
2023-04-29T12:51:19.459Z,0.12
2023-04-29T12:52:19.450Z,0.21
2023-04-29T12:53:19.453Z,0.08
2023-04-29T12:54:19.450Z,0.27
2023-04-29T12:55:19.444Z,0.14
2023-04-29T12:56:20.212Z,0.16
2023-04-29T12:57:19.428Z,0.28
2023-04-29T12:58:19.799Z,0.10
2023-04-29T12:59:19.390Z,0.12
2023-04-29T13:00:19.380Z,0.17
2023-04-29T13:01:19.409Z,0.20
2023-04-29T13:02:19.466Z,0.01
2023-04-29T13:03:22.085Z,0.06
2023-04-29T13:04:19.450Z,0.21
2023-04-29T13:05:19.386Z,0.14
2023-04-29T13:06:19.346Z,0.06
2023-04-29T13:07:19.354Z,0.19
2023-04-29T13:08:19.480Z,0.04
2023-04-29T13:09:19.350Z,0.07
2023-04-29T13:10:19.330Z,0.17
2023-04-29T13:11:20.091Z,0.15
2023-04-29T13:12:19.320Z,0.16
2023-04-29T13:13:19.476Z,0.12
2023-04-29T13:14:19.300Z,0.13
2023-04-29T13:15:19.281Z,0.12
2023-04-29T13:16:19.318Z,0.16
2023-04-29T13:17:19.282Z,0.16
2023-04-29T13:18:19.256Z,0.28
2023-04-29T13:19:36.377Z,0.20